createdAt,value
2022-07-30T00:04:33.946Z,100.00
2022-07-30T00:09:36.887Z,100.00
2022-07-30T00:14:41.297Z,98.39
2022-07-30T00:19:44.362Z,100.00
2022-07-30T00:24:47.844Z,100.00
2022-07-30T00:29:52.156Z,100.00
2022-07-30T00:34:55.247Z,100.00
2022-07-30T00:39:58.250Z,100.00
2022-07-30T00:45:02.543Z,100.00
2022-07-30T00:50:07.779Z,100.00
2022-07-30T00:55:14.224Z,100.00
2022-07-30T01:00:19.592Z,100.00
2022-07-30T01:05:22.786Z,100.00
2022-07-30T01:10:26.229Z,100.00
2022-07-30T01:15:31.265Z,100.00
2022-07-30T01:20:39.440Z,100.00
2022-07-30T01:26:03.152Z,100.00
2022-07-30T01:31:08.422Z,100.00
2022-07-30T01:36:14.243Z,100.00
2022-07-30T01:41:20.315Z,100.00
2022-07-30T01:46:25.275Z,100.00
2022-07-30T01:51:37.708Z,100.00
2022-07-30T01:56:45.157Z,100.00
2022-07-30T02:01:49.480Z,100.00
2022-07-30T02:07:01.121Z,100.00
2022-07-30T02:12:27.323Z,100.00
2022-07-30T02:17:39.905Z,100.00
2022-07-30T02:22:48.621Z,100.00
2022-07-30T02:27:57.429Z,100.00
2022-07-30T02:33:08.318Z,100.00
2022-07-30T02:38:14.019Z,100.00
2022-07-30T02:43:20.805Z,100.00
2022-07-30T02:48:34.416Z,100.00
2022-07-30T02:53:39.578Z,100.00
2022-07-30T02:58:45.814Z,100.00
2022-07-30T03:03:49.565Z,100.00
2022-07-30T03:08:54.990Z,100.00
2022-07-30T03:13:59.544Z,100.00
2022-07-30T03:19:05.107Z,100.00
2022-07-30T03:24:10.201Z,100.00
2022-07-30T03:29:17.556Z,100.00
2022-07-30T03:34:26.705Z,100.00
2022-07-30T03:39:36.045Z,100.00
2022-07-30T03:44:42.411Z,100.00
2022-07-30T03:49:45.559Z,100.00
2022-07-30T03:54:49.768Z,100.00
2022-07-30T04:00:26.436Z,100.00
2022-07-30T04:05:37.456Z,100.00
2022-07-30T04:10:45.247Z,100.00
2022-07-30T04:16:38.923Z,100.00
2022-07-30T04:21:47.635Z,100.00
2022-07-30T04:26:52.764Z,100.00
2022-07-30T04:31:58.143Z,100.00
2022-07-30T04:37:09.840Z,100.00
2022-07-30T04:42:14.061Z,100.00
2022-07-30T04:47:22.297Z,100.00
2022-07-30T04:52:49.630Z,100.00
2022-07-30T04:58:01.966Z,100.00
2022-07-30T05:03:11.140Z,100.00
2022-07-30T05:08:14.917Z,100.00
2022-07-30T05:13:17.886Z,100.00
2022-07-30T05:18:23.587Z,100.00
2022-07-30T05:23:26.604Z,100.00
2022-07-30T05:28:38.286Z,100.00
2022-07-30T05:33:48.909Z,100.00
2022-07-30T05:38:54.135Z,100.00
2022-07-30T05:44:11.680Z,100.00
2022-07-30T05:49:16.400Z,100.00
2022-07-30T05:54:19.726Z,100.00
2022-07-30T05:59:40.906Z,100.00
2022-07-30T06:04:46.885Z,100.00
2022-07-30T06:09:49.960Z,100.00
2022-07-30T06:14:53.098Z,100.00
2022-07-30T06:20:03.522Z,100.00
2022-07-30T06:25:13.486Z,100.00
2022-07-30T06:30:30.425Z,100.00
2022-07-30T06:35:36.123Z,100.00
2022-07-30T06:40:40.441Z,100.00
2022-07-30T06:45:55.456Z,100.00
2022-07-30T06:51:02.249Z,100.00
2022-07-30T06:56:06.095Z,99.82
2022-07-30T07:01:18.539Z,99.04
2022-07-30T07:06:23.090Z,97.55
2022-07-30T07:11:26.275Z,96.63
2022-07-30T07:16:32.333Z,97.61
2022-07-30T07:21:42.605Z,94.14
2022-07-30T07:26:45.839Z,92.92
2022-07-30T07:32:06.389Z,92.61
2022-07-30T07:37:12.575Z,91.70
2022-07-30T07:42:16.331Z,89.58
2022-07-30T07:47:20.793Z,88.02
2022-07-30T07:52:40.493Z,83.34
2022-07-30T07:57:45.469Z,81.52
2022-07-30T08:02:51.815Z,78.64
2022-07-30T08:07:56.455Z,80.98
2022-07-30T08:13:49.001Z,80.21
2022-07-30T08:19:14.976Z,77.25
2022-07-30T08:24:26.683Z,75.84
2022-07-30T08:29:30.178Z,75.31
2022-07-30T08:34:33.414Z,75.04
2022-07-30T08:39:40.593Z,73.32
2022-07-30T08:44:46.617Z,70.97
2022-07-30T08:49:52.790Z,69.36
2022-07-30T08:55:02.659Z,71.66
2022-07-30T09:00:08.557Z,68.75
2022-07-30T09:05:12.784Z,67.44
2022-07-30T09:10:17.797Z,62.79
2022-07-30T09:15:23.718Z,61.98
2022-07-30T09:20:29.137Z,61.18
2022-07-30T09:25:40.318Z,61.49
2022-07-30T09:31:07.453Z,61.44
2022-07-30T09:36:32.937Z,59.22
2022-07-30T09:42:20.641Z,57.87
2022-07-30T09:47:34.133Z,57.36
2022-07-30T09:52:44.326Z,57.23
2022-07-30T09:57:58.679Z,57.09
2022-07-30T10:03:34.437Z,56.92
2022-07-30T10:08:58.224Z,58.38
2022-07-30T10:14:04.452Z,52.73
2022-07-30T10:19:15.908Z,53.84
2022-07-30T10:25:01.480Z,53.27
2022-07-30T10:30:28.200Z,53.11
2022-07-30T10:35:37.715Z,54.60
2022-07-30T10:40:47.519Z,51.08
2022-07-30T10:46:00.599Z,50.90
2022-07-30T10:57:06.056Z,48.18
2022-07-30T11:02:59.581Z,45.81
2022-07-30T11:08:36.774Z,46.99
2022-07-30T11:13:57.383Z,45.47
2022-07-30T11:19:56.393Z,47.09
2022-07-30T11:24:47.093Z,45.66
2022-07-30T11:29:52.196Z,48.04
2022-07-30T11:35:19.562Z,46.06
2022-07-30T11:40:29.027Z,44.45
2022-07-30T11:45:32.435Z,45.78
2022-07-30T11:50:36.040Z,44.07
2022-07-30T11:55:42.639Z,44.43
2022-07-30T12:00:47.943Z,44.86
2022-07-30T12:05:53.296Z,45.20
2022-07-30T12:11:00.022Z,45.46
2022-07-30T12:16:09.262Z,43.91
2022-07-30T12:21:15.706Z,43.13
2022-07-30T12:26:26.756Z,43.12
2022-07-30T12:31:30.500Z,44.62
2022-07-30T12:36:35.459Z,44.46
2022-07-30T12:41:47.160Z,44.29
2022-07-30T12:46:50.378Z,43.92
2022-07-30T12:52:00.274Z,45.36
2022-07-30T12:57:07.178Z,43.96
2022-07-30T13:02:10.505Z,43.78
2022-07-30T13:07:14.100Z,44.33
2022-07-30T13:12:18.522Z,45.78
2022-07-30T13:17:21.576Z,42.88
2022-07-30T13:22:24.887Z,44.49
2022-07-30T13:27:29.397Z,43.84
2022-07-30T13:32:32.977Z,43.95
2022-07-30T13:37:38.234Z,45.09
2022-07-30T13:42:43.130Z,45.62
2022-07-30T13:47:46.151Z,45.54
2022-07-30T13:52:49.370Z,44.47
2022-07-30T13:57:53.995Z,44.39
2022-07-30T14:02:56.973Z,42.16
2022-07-30T14:08:00.672Z,44.31
2022-07-30T14:13:06.333Z,43.60
2022-07-30T14:18:09.464Z,41.75
2022-07-30T14:23:12.464Z,42.68
2022-07-30T14:28:17.194Z,40.38
2022-07-30T14:33:20.200Z,41.47
2022-07-30T14:38:23.515Z,41.59
2022-07-30T14:43:30.813Z,41.73
2022-07-30T14:48:33.818Z,40.14
2022-07-30T14:53:37.284Z,41.05
2022-07-30T14:58:41.766Z,39.80
2022-07-30T15:03:45.375Z,41.02
2022-07-30T15:08:48.869Z,41.44
2022-07-30T15:13:53.372Z,43.01
2022-07-30T15:18:56.502Z,42.16
2022-07-30T15:23:59.658Z,41.97
2022-07-30T15:29:04.144Z,41.76
2022-07-30T15:34:11.003Z,40.96
2022-07-30T15:39:15.475Z,43.53
2022-07-30T15:44:20.115Z,43.75
2022-07-30T15:49:23.691Z,45.22
2022-07-30T15:54:26.924Z,43.74
2022-07-30T15:59:32.012Z,45.06
2022-07-30T16:04:35.558Z,43.86
2022-07-30T16:09:38.712Z,44.51
2022-07-30T16:14:43.255Z,44.89
2022-07-30T16:19:46.378Z,45.37
2022-07-30T16:24:50.031Z,43.80
2022-07-30T16:29:54.801Z,46.34
2022-07-30T16:34:57.874Z,46.30
2022-07-30T16:40:00.970Z,46.71
2022-07-30T16:45:07.640Z,47.18
2022-07-30T16:50:11.997Z,47.45
2022-07-30T16:55:15.260Z,48.00
2022-07-30T17:00:20.018Z,46.91
2022-07-30T17:05:22.973Z,47.30
2022-07-30T17:10:26.678Z,47.32
2022-07-30T17:15:33.349Z,47.80
2022-07-30T17:20:36.599Z,48.23
2022-07-30T17:25:39.643Z,48.51
2022-07-30T17:30:44.104Z,48.63
2022-07-30T17:35:47.164Z,48.59
2022-07-30T17:40:50.429Z,48.26
2022-07-30T17:45:54.860Z,48.53
2022-07-30T17:50:57.898Z,48.82
2022-07-30T17:56:01.001Z,49.12
2022-07-30T18:01:05.662Z,49.40
2022-07-30T18:06:08.649Z,51.46
2022-07-30T18:11:13.942Z,51.56
2022-07-30T18:16:18.691Z,51.08
2022-07-30T18:21:21.784Z,52.49
2022-07-30T18:26:24.839Z,53.15
2022-07-30T18:31:29.515Z,51.97
2022-07-30T18:36:32.583Z,52.04
2022-07-30T18:41:35.639Z,53.53
2022-07-30T18:46:40.057Z,54.03
2022-07-30T18:51:43.097Z,53.79
2022-07-30T18:56:46.557Z,54.02
2022-07-30T19:01:50.903Z,55.42
2022-07-30T19:06:53.916Z,55.37
2022-07-30T19:11:56.934Z,55.93
2022-07-30T19:17:01.380Z,56.60
2022-07-30T19:22:05.726Z,57.63
2022-07-30T19:27:13.964Z,57.96
2022-07-30T19:32:18.783Z,57.77
2022-07-30T19:37:22.048Z,58.20
2022-07-30T19:42:26.163Z,59.85
2022-07-30T19:47:39.133Z,59.47
2022-07-30T19:52:51.223Z,60.46
2022-07-30T19:57:55.024Z,61.45
2022-07-30T20:02:59.825Z,61.69
2022-07-30T20:08:04.370Z,62.57
2022-07-30T20:13:08.462Z,63.19
2022-07-30T20:18:12.871Z,62.73
2022-07-30T20:23:17.977Z,64.03
2022-07-30T20:28:21.207Z,64.76
2022-07-30T20:33:36.197Z,65.61
2022-07-30T20:38:44.455Z,66.20
2022-07-30T20:43:52.392Z,65.87
2022-07-30T20:48:59.223Z,67.11
2022-07-30T20:54:02.604Z,66.85
2022-07-30T20:59:06.420Z,68.30
2022-07-30T21:04:10.841Z,69.24
2022-07-30T21:09:29.057Z,70.02
2022-07-30T21:14:52.942Z,71.13
2022-07-30T21:19:57.491Z,71.27
2022-07-30T21:25:00.659Z,73.35
2022-07-30T21:30:05.285Z,74.99
2022-07-30T21:35:11.690Z,74.73
2022-07-30T21:40:15.128Z,73.82
2022-07-30T21:45:19.820Z,73.47
2022-07-30T21:50:24.561Z,73.47
2022-07-30T21:55:27.767Z,74.98
2022-07-30T22:00:44.871Z,76.10
2022-07-30T22:05:50.838Z,75.50
2022-07-30T22:10:56.663Z,75.77
2022-07-30T22:16:00.007Z,76.69
2022-07-30T22:21:05.199Z,75.89
2022-07-30T22:26:10.028Z,75.49
2022-07-30T22:31:15.887Z,76.98
2022-07-30T22:36:25.230Z,73.28
2022-07-30T22:41:28.884Z,71.35
2022-07-30T22:46:32.219Z,71.18
2022-07-30T22:52:01.820Z,69.76
2022-07-30T22:57:03.776Z,69.57
2022-07-30T23:02:07.185Z,67.50
2022-07-30T23:07:19.088Z,65.79
2022-07-30T23:12:22.249Z,65.08
2022-07-30T23:17:25.379Z,65.11
2022-07-30T23:22:29.754Z,65.36
2022-07-30T23:27:32.970Z,66.39
2022-07-30T23:32:36.707Z,67.16
2022-07-30T23:37:49.169Z,68.72
2022-07-30T23:42:52.653Z,69.03
2022-07-30T23:48:01.582Z,69.54
2022-07-30T23:53:07.838Z,69.67
2022-07-30T23:58:10.818Z,71.30
